sensor_id;sensor_type;location;lat;lon;timestamp;pressure;altitude;pressure_sealevel;temperature;humidity
52032;BME280;38044;45.148;39.604;2022-07-09T00:03:27;100345.94;;;22.43;81.09
52032;BME280;38044;45.148;39.604;2022-07-09T00:05:53;100369.84;;;22.46;81.50
52032;BME280;38044;45.148;39.604;2022-07-09T00:08:19;100329.72;;;22.23;81.90
52032;BME280;38044;45.148;39.604;2022-07-09T00:10:45;100382.09;;;22.59;82.06
52032;BME280;38044;45.148;39.604;2022-07-09T00:13:11;100396.22;;;22.61;81.67
52032;BME280;38044;45.148;39.604;2022-07-09T00:15:37;100390.28;;;22.52;81.75
52032;BME280;38044;45.148;39.604;2022-07-09T00:18:03;100346.22;;;22.31;82.15
52032;BME280;38044;45.148;39.604;2022-07-09T00:20:29;100344.19;;;22.24;81.99
52032;BME280;38044;45.148;39.604;2022-07-09T00:22:55;100382.78;;;22.49;82.29
52032;BME280;38044;45.148;39.604;2022-07-09T00:25:21;100383.19;;;22.51;82.44
52032;BME280;38044;45.148;39.604;2022-07-09T00:27:46;100390.28;;;22.52;82.36
52032;BME280;38044;45.148;39.604;2022-07-09T00:30:12;100383.13;;;22.44;82.32
52032;BME280;38044;45.148;39.604;2022-07-09T00:32:41;100337.56;;;22.25;82.18
52032;BME280;38044;45.148;39.604;2022-07-09T00:35:07;100394.25;;;22.58;82.40
52032;BME280;38044;45.148;39.604;2022-07-09T00:37:37;100307.94;;;22.00;82.29
52032;BME280;38044;45.148;39.604;2022-07-09T00:40:10;100303.63;;;21.99;82.85
52032;BME280;38044;45.148;39.604;2022-07-09T00:42:36;100380.75;;;22.42;82.51
52032;BME280;38044;45.148;39.604;2022-07-09T00:45:02;100356.38;;;22.30;82.42
52032;BME280;38044;45.148;39.604;2022-07-09T00:47:28;100373.69;;;22.38;82.78
52032;BME280;38044;45.148;39.604;2022-07-09T00:49:54;100393.34;;;22.47;82.57
52032;BME280;38044;45.148;39.604;2022-07-09T00:52:20;100388.94;;;22.39;83.25
52032;BME280;38044;45.148;39.604;2022-07-09T00:54:46;100388.53;;;22.37;83.22
52032;BME280;38044;45.148;39.604;2022-07-09T00:57:12;100382.88;;;22.22;83.38
52032;BME280;38044;45.148;39.604;2022-07-09T00:59:39;100349.31;;;21.95;83.08
52032;BME280;38044;45.148;39.604;2022-07-09T01:02:08;100391.94;;;22.26;83.45
52032;BME280;38044;45.148;39.604;2022-07-09T01:04:34;100408.44;;;22.34;83.22
52032;BME280;38044;45.148;39.604;2022-07-09T01:07:02;100380.56;;;22.24;83.70
52032;BME280;38044;45.148;39.604;2022-07-09T01:09:28;100390.41;;;22.29;83.20
52032;BME280;38044;45.148;39.604;2022-07-09T01:11:55;100386.13;;;22.32;83.32
52032;BME280;38044;45.148;39.604;2022-07-09T01:14:21;100320.66;;;21.86;83.39
52032;BME280;38044;45.148;39.604;2022-07-09T01:16:57;100394.78;;;22.37;83.26
52032;BME280;38044;45.148;39.604;2022-07-09T01:19:24;100412.09;;;22.45;83.28
52032;BME280;38044;45.148;39.604;2022-07-09T01:21:50;100418.81;;;22.51;82.72
52032;BME280;38044;45.148;39.604;2022-07-09T01:24:16;100417.66;;;22.52;82.38
52032;BME280;38044;45.148;39.604;2022-07-09T01:26:42;100420.03;;;22.57;82.39
52032;BME280;38044;45.148;39.604;2022-07-09T01:29:08;100420.88;;;22.61;82.54
52032;BME280;38044;45.148;39.604;2022-07-09T01:31:34;100365.81;;;22.33;82.10
52032;BME280;38044;45.148;39.604;2022-07-09T01:34:00;100324.78;;;22.02;82.31
52032;BME280;38044;45.148;39.604;2022-07-09T01:36:26;100414.66;;;22.64;81.99
52032;BME280;38044;45.148;39.604;2022-07-09T01:38:52;100400.06;;;22.53;82.40
52032;BME280;38044;45.148;39.604;2022-07-09T01:41:18;100405.19;;;22.58;82.22
52032;BME280;38044;45.148;39.604;2022-07-09T01:43:44;100405.53;;;22.53;82.49
52032;BME280;38044;45.148;39.604;2022-07-09T01:46:10;100413.41;;;22.58;82.38
52032;BME280;38044;45.148;39.604;2022-07-09T01:48:36;100409.78;;;22.47;82.23
52032;BME280;38044;45.148;39.604;2022-07-09T01:51:02;100405.84;;;22.48;82.56
52032;BME280;38044;45.148;39.604;2022-07-09T01:53:28;100329.41;;;21.95;82.87
52032;BME280;38044;45.148;39.604;2022-07-09T01:55:55;100328.66;;;21.98;82.61
52032;BME280;38044;45.148;39.604;2022-07-09T01:58:21;100350.72;;;22.16;82.34
52032;BME280;38044;45.148;39.604;2022-07-09T02:00:47;100377.97;;;22.35;82.35
52032;BME280;38044;45.148;39.604;2022-07-09T02:03:13;100396.47;;;22.49;81.88
52032;BME280;38044;45.148;39.604;2022-07-09T02:05:39;100409.16;;;22.64;82.11
52032;BME280;38044;45.148;39.604;2022-07-09T02:08:04;100411.19;;;22.71;81.44
52032;BME280;38044;45.148;39.604;2022-07-09T02:10:30;100391.22;;;22.70;81.26
52032;BME280;38044;45.148;39.604;2022-07-09T02:12:56;100401.19;;;22.89;81.11
52032;BME280;38044;45.148;39.604;2022-07-09T02:15:22;100408.75;;;23.03;80.51
52032;BME280;38044;45.148;39.604;2022-07-09T02:17:48;100424.53;;;23.17;79.98
52032;BME280;38044;45.148;39.604;2022-07-09T02:20:14;100375.09;;;23.06;79.34
52032;BME280;38044;45.148;39.604;2022-07-09T02:22:40;100374.41;;;23.16;78.57
52032;BME280;38044;45.148;39.604;2022-07-09T02:25:06;100373.28;;;23.25;78.87
52032;BME280;38044;45.148;39.604;2022-07-09T02:27:32;100407.16;;;23.50;78.49
52032;BME280;38044;45.148;39.604;2022-07-09T02:29:58;100415.34;;;23.47;78.63
52032;BME280;38044;45.148;39.604;2022-07-09T02:32:24;100353.53;;;23.01;78.59
52032;BME280;38044;45.148;39.604;2022-07-09T02:34:50;100333.78;;;22.85;78.55
52032;BME280;38044;45.148;39.604;2022-07-09T02:37:16;100406.59;;;23.27;78.49
52032;BME280;38044;45.148;39.604;2022-07-09T02:39:41;100376.69;;;23.07;78.77
52032;BME280;38044;45.148;39.604;2022-07-09T02:42:07;100343.25;;;22.91;78.97
52032;BME280;38044;45.148;39.604;2022-07-09T02:44:33;100402.66;;;23.24;78.84
52032;BME280;38044;45.148;39.604;2022-07-09T02:46:59;100416.03;;;23.33;78.88
52032;BME280;38044;45.148;39.604;2022-07-09T02:49:25;100392.16;;;23.41;78.68
52032;BME280;38044;45.148;39.604;2022-07-09T02:51:52;100402.22;;;23.74;77.78
52032;BME280;38044;45.148;39.604;2022-07-09T02:54:18;100376.84;;;23.98;76.63
52032;BME280;38044;45.148;39.604;2022-07-09T02:56:44;100314.41;;;23.74;75.42
52032;BME280;38044;45.148;39.604;2022-07-09T02:59:10;100323.44;;;23.78;75.79
52032;BME280;38044;45.148;39.604;2022-07-09T03:01:36;100312.84;;;23.73;75.11
52032;BME280;38044;45.148;39.604;2022-07-09T03:04:02;100329.41;;;24.09;74.38
52032;BME280;38044;45.148;39.604;2022-07-09T03:06:28;100400.22;;;24.72;73.50
52032;BME280;38044;45.148;39.604;2022-07-09T03:08:54;100398.22;;;24.80;73.14
52032;BME280;38044;45.148;39.604;2022-07-09T03:11:20;100388.81;;;24.81;72.71
52032;BME280;38044;45.148;39.604;2022-07-09T03:13:45;100390.00;;;25.09;72.20
52032;BME280;38044;45.148;39.604;2022-07-09T03:16:11;100390.03;;;25.27;70.85
52032;BME280;38044;45.148;39.604;2022-07-09T03:18:37;100401.78;;;25.42;70.63
52032;BME280;38044;45.148;39.604;2022-07-09T03:21:04;100375.44;;;25.40;70.41
52032;BME280;38044;45.148;39.604;2022-07-09T03:23:30;100354.63;;;25.32;69.56
52032;BME280;38044;45.148;39.604;2022-07-09T03:25:56;100382.81;;;25.79;68.98
52032;BME280;38044;45.148;39.604;2022-07-09T03:28:24;100407.91;;;26.10;68.15
52032;BME280;38044;45.148;39.604;2022-07-09T03:30:50;100404.69;;;26.15;67.99
52032;BME280;38044;45.148;39.604;2022-07-09T03:33:16;100404.69;;;26.15;68.04
52032;BME280;38044;45.148;39.604;2022-07-09T03:35:42;100391.72;;;26.19;66.77
52032;BME280;38044;45.148;39.604;2022-07-09T03:38:09;100419.34;;;26.79;65.84
52032;BME280;38044;45.148;39.604;2022-07-09T03:40:34;100412.78;;;27.52;64.03
52032;BME280;38044;45.148;39.604;2022-07-09T03:43:00;100391.75;;;27.65;63.15
52032;BME280;38044;45.148;39.604;2022-07-09T03:45:26;100422.03;;;27.76;63.23
52032;BME280;38044;45.148;39.604;2022-07-09T03:47:52;100395.00;;;27.56;62.98
52032;BME280;38044;45.148;39.604;2022-07-09T03:50:18;100419.41;;;27.61;63.27
52032;BME280;38044;45.148;39.604;2022-07-09T03:52:44;100410.00;;;27.55;63.12
52032;BME280;38044;45.148;39.604;2022-07-09T03:55:10;100398.31;;;27.82;62.32
52032;BME280;38044;45.148;39.604;2022-07-09T03:57:36;100427.81;;;29.04;59.90
52032;BME280;38044;45.148;39.604;2022-07-09T04:00:03;100416.69;;;29.95;57.49
52032;BME280;38044;45.148;39.604;2022-07-09T04:02:29;100348.47;;;29.41;56.95
52032;BME280;38044;45.148;39.604;2022-07-09T04:04:54;100428.34;;;29.66;57.31
52032;BME280;38044;45.148;39.604;2022-07-09T04:07:22;100366.91;;;28.57;58.87
52032;BME280;38044;45.148;39.604;2022-07-09T04:09:48;100352.53;;;27.81;59.84
52032;BME280;38044;45.148;39.604;2022-07-09T04:12:14;100416.16;;;27.70;61.32
52032;BME280;38044;45.148;39.604;2022-07-09T04:14:40;100424.66;;;27.87;61.47
52032;BME280;38044;45.148;39.604;2022-07-09T04:17:06;100402.81;;;28.30;59.93
52032;BME280;38044;45.148;39.604;2022-07-09T04:19:32;100406.47;;;29.28;57.76
52032;BME280;38044;45.148;39.604;2022-07-09T04:21:57;100362.31;;;30.01;55.69
52032;BME280;38044;45.148;39.604;2022-07-09T04:24:23;100363.78;;;31.24;52.49
52032;BME280;38044;45.148;39.604;2022-07-09T04:26:49;100423.22;;;32.90;50.00
52032;BME280;38044;45.148;39.604;2022-07-09T04:29:15;100419.28;;;33.83;47.24
52032;BME280;38044;45.148;39.604;2022-07-09T04:31:41;100411.34;;;34.66;45.59
52032;BME280;38044;45.148;39.604;2022-07-09T04:34:07;100437.72;;;35.60;43.88
52032;BME280;38044;45.148;39.604;2022-07-09T04:36:32;100438.22;;;36.29;41.41
52032;BME280;38044;45.148;39.604;2022-07-09T04:38:58;100367.81;;;36.21;40.78
52032;BME280;38044;45.148;39.604;2022-07-09T04:41:24;100430.03;;;36.83;39.85
52032;BME280;38044;45.148;39.604;2022-07-09T04:43:50;100420.16;;;37.20;39.63
52032;BME280;38044;45.148;39.604;2022-07-09T04:46:16;100433.09;;;37.57;39.43
52032;BME280;38044;45.148;39.604;2022-07-09T04:48:42;100412.44;;;37.84;37.63
52032;BME280;38044;45.148;39.604;2022-07-09T04:51:08;100421.25;;;38.06;37.79
52032;BME280;38044;45.148;39.604;2022-07-09T04:53:34;100380.97;;;37.80;37.98
52032;BME280;38044;45.148;39.604;2022-07-09T04:55:59;100419.34;;;38.33;37.04
52032;BME280;38044;45.148;39.604;2022-07-09T04:58:25;100408.81;;;38.43;37.13
52032;BME280;38044;45.148;39.604;2022-07-09T05:00:51;100428.72;;;38.95;35.54
52032;BME280;38044;45.148;39.604;2022-07-09T05:03:17;100436.66;;;38.61;35.31
52032;BME280;38044;45.148;39.604;2022-07-09T05:05:43;100355.53;;;38.48;35.18
52032;BME280;38044;45.148;39.604;2022-07-09T05:08:08;100386.81;;;38.97;34.94
52032;BME280;38044;45.148;39.604;2022-07-09T05:10:34;100362.00;;;39.16;34.13
52032;BME280;38044;45.148;39.604;2022-07-09T05:13:00;100422.50;;;39.78;33.63
52032;BME280;38044;45.148;39.604;2022-07-09T05:15:26;100423.72;;;40.03;32.66
52032;BME280;38044;45.148;39.604;2022-07-09T05:17:52;100433.66;;;39.73;33.56
52032;BME280;38044;45.148;39.604;2022-07-09T05:20:18;100430.34;;;39.48;33.53
52032;BME280;38044;45.148;39.604;2022-07-09T05:22:44;100414.34;;;39.34;33.43
52032;BME280;38044;45.148;39.604;2022-07-09T05:25:10;100429.81;;;39.70;32.74
52032;BME280;38044;45.148;39.604;2022-07-09T05:27:43;100429.59;;;39.74;33.45
52032;BME280;38044;45.148;39.604;2022-07-09T05:30:10;100422.25;;;39.56;33.61
52032;BME280;38044;45.148;39.604;2022-07-09T05:32:36;100430.03;;;39.67;32.98
52032;BME280;38044;45.148;39.604;2022-07-09T05:35:02;100371.13;;;39.57;33.01
52032;BME280;38044;45.148;39.604;2022-07-09T05:37:27;100405.69;;;39.84;32.39
52032;BME280;38044;45.148;39.604;2022-07-09T05:39:56;100424.22;;;40.02;32.33
52032;BME280;38044;45.148;39.604;2022-07-09T05:42:22;100395.81;;;39.74;32.44
52032;BME280;38044;45.148;39.604;2022-07-09T05:44:48;100415.31;;;39.77;32.55
52032;BME280;38044;45.148;39.604;2022-07-09T05:47:14;100414.13;;;39.84;32.82
52032;BME280;38044;45.148;39.604;2022-07-09T05:49:40;100355.56;;;39.88;32.64
52032;BME280;38044;45.148;39.604;2022-07-09T05:52:07;100381.59;;;40.58;32.34
52032;BME280;38044;45.148;39.604;2022-07-09T05:54:32;100414.75;;;41.39;31.10
52032;BME280;38044;45.148;39.604;2022-07-09T05:56:58;100420.97;;;41.77;30.68
52032;BME280;38044;45.148;39.604;2022-07-09T05:59:24;100382.16;;;41.16;30.60
52032;BME280;38044;45.148;39.604;2022-07-09T06:01:50;100362.38;;;41.05;31.44
52032;BME280;38044;45.148;39.604;2022-07-09T06:04:16;100427.13;;;41.48;31.41
52032;BME280;38044;45.148;39.604;2022-07-09T06:06:41;100358.84;;;41.32;30.80
52032;BME280;38044;45.148;39.604;2022-07-09T06:09:07;100397.13;;;42.01;30.59
52032;BME280;38044;45.148;39.604;2022-07-09T06:11:33;100405.81;;;42.53;30.59
52032;BME280;38044;45.148;39.604;2022-07-09T06:14:00;100395.75;;;42.64;29.96
52032;BME280;38044;45.148;39.604;2022-07-09T06:16:25;100401.53;;;43.00;30.06
52032;BME280;38044;45.148;39.604;2022-07-09T06:18:51;100374.97;;;43.19;28.89
52032;BME280;38044;45.148;39.604;2022-07-09T06:21:17;100366.81;;;43.05;28.49
52032;BME280;38044;45.148;39.604;2022-07-09T06:23:43;100400.25;;;42.95;28.38
52032;BME280;38044;45.148;39.604;2022-07-09T06:26:09;100403.63;;;42.93;29.47
52032;BME280;38044;45.148;39.604;2022-07-09T06:28:38;100387.94;;;43.45;28.86
52032;BME280;38044;45.148;39.604;2022-07-09T06:31:04;100404.81;;;43.09;28.70
52032;BME280;38044;45.148;39.604;2022-07-09T06:33:30;100398.66;;;43.58;28.29
52032;BME280;38044;45.148;39.604;2022-07-09T06:35:56;100398.38;;;43.61;27.86
52032;BME280;38044;45.148;39.604;2022-07-09T06:38:27;100399.44;;;43.89;27.47
52032;BME280;38044;45.148;39.604;2022-07-09T06:40:56;100390.31;;;44.01;27.67
52032;BME280;38044;45.148;39.604;2022-07-09T06:43:23;100376.41;;;44.03;27.19
52032;BME280;38044;45.148;39.604;2022-07-09T06:45:49;100387.28;;;44.48;28.21
52032;BME280;38044;45.148;39.604;2022-07-09T06:48:14;100383.84;;;44.80;27.37
52032;BME280;38044;45.148;39.604;2022-07-09T06:50:41;100393.97;;;44.94;26.28
52032;BME280;38044;45.148;39.604;2022-07-09T06:53:10;100376.72;;;44.00;26.71
52032;BME280;38044;45.148;39.604;2022-07-09T06:55:36;100382.69;;;43.96;27.50
52032;BME280;38044;45.148;39.604;2022-07-09T06:58:02;100304.00;;;43.59;27.30
52032;BME280;38044;45.148;39.604;2022-07-09T07:00:28;100383.78;;;44.12;26.78
52032;BME280;38044;45.148;39.604;2022-07-09T07:02:54;100318.31;;;43.67;26.69
52032;BME280;38044;45.148;39.604;2022-07-09T07:05:24;100372.16;;;44.16;26.77
52032;BME280;38044;45.148;39.604;2022-07-09T07:07:50;100372.00;;;44.08;27.10
52032;BME280;38044;45.148;39.604;2022-07-09T07:10:16;100320.28;;;43.77;26.10
52032;BME280;38044;45.148;39.604;2022-07-09T07:12:42;100366.22;;;44.19;26.79
52032;BME280;38044;45.148;39.604;2022-07-09T07:15:08;100294.50;;;43.56;27.32
52032;BME280;38044;45.148;39.604;2022-07-09T07:17:34;100367.53;;;43.88;27.95
52032;BME280;38044;45.148;39.604;2022-07-09T07:20:00;100366.22;;;43.89;27.89
52032;BME280;38044;45.148;39.604;2022-07-09T07:22:26;100348.03;;;43.84;28.15
52032;BME280;38044;45.148;39.604;2022-07-09T07:24:52;100368.50;;;44.21;27.93
52032;BME280;38044;45.148;39.604;2022-07-09T07:27:17;100298.63;;;43.55;27.90
52032;BME280;38044;45.148;39.604;2022-07-09T07:29:44;100370.19;;;44.35;28.29
52032;BME280;38044;45.148;39.604;2022-07-09T07:32:09;100374.66;;;44.25;27.28
52032;BME280;38044;45.148;39.604;2022-07-09T07:34:35;100368.72;;;43.98;27.56
52032;BME280;38044;45.148;39.604;2022-07-09T07:37:01;100359.81;;;43.89;27.77
52032;BME280;38044;45.148;39.604;2022-07-09T07:39:30;100371.63;;;43.62;27.98
52032;BME280;38044;45.148;39.604;2022-07-09T07:42:05;100371.63;;;43.62;28.12
52032;BME280;38044;45.148;39.604;2022-07-09T07:44:34;100370.91;;;43.56;28.42
52032;BME280;38044;45.148;39.604;2022-07-09T07:47:06;100362.94;;;43.85;27.96
52032;BME280;38044;45.148;39.604;2022-07-09T07:49:31;100352.13;;;43.53;28.20
52032;BME280;38044;45.148;39.604;2022-07-09T07:51:57;100338.50;;;43.82;27.35
52032;BME280;38044;45.148;39.604;2022-07-09T07:54:23;100358.25;;;44.42;26.83
52032;BME280;38044;45.148;39.604;2022-07-09T07:56:49;100353.88;;;44.41;27.18
52032;BME280;38044;45.148;39.604;2022-07-09T07:59:16;100344.75;;;43.75;27.76
52032;BME280;38044;45.148;39.604;2022-07-09T08:01:42;100368.81;;;43.87;27.31
52032;BME280;38044;45.148;39.604;2022-07-09T08:04:08;100364.66;;;43.94;27.25
52032;BME280;38044;45.148;39.604;2022-07-09T08:06:34;100343.13;;;43.85;29.13
52032;BME280;38044;45.148;39.604;2022-07-09T08:09:02;100354.53;;;44.28;27.63
52032;BME280;38044;45.148;39.604;2022-07-09T08:11:28;100356.00;;;44.35;27.23
52032;BME280;38044;45.148;39.604;2022-07-09T08:13:54;100300.09;;;44.17;26.73
52032;BME280;38044;45.148;39.604;2022-07-09T08:16:20;100353.44;;;44.37;27.07
52032;BME280;38044;45.148;39.604;2022-07-09T08:18:46;100350.00;;;44.20;27.12
52032;BME280;38044;45.148;39.604;2022-07-09T08:21:13;100335.47;;;44.29;26.77
52032;BME280;38044;45.148;39.604;2022-07-09T08:23:39;100301.94;;;43.84;26.81
52032;BME280;38044;45.148;39.604;2022-07-09T08:26:26;100347.63;;;44.48;26.32
52032;BME280;38044;45.148;39.604;2022-07-09T08:28:53;100331.50;;;43.89;27.18
52032;BME280;38044;45.148;39.604;2022-07-09T08:31:21;100293.44;;;43.59;26.85
52032;BME280;38044;45.148;39.604;2022-07-09T08:33:48;100351.94;;;44.06;26.90
52032;BME280;38044;45.148;39.604;2022-07-09T08:36:14;100318.97;;;43.48;27.53
52032;BME280;38044;45.148;39.604;2022-07-09T08:38:40;100268.19;;;42.95;27.53
52032;BME280;38044;45.148;39.604;2022-07-09T08:41:06;100340.53;;;43.57;28.12
52032;BME280;38044;45.148;39.604;2022-07-09T08:43:34;100346.25;;;43.46;28.46
52032;BME280;38044;45.148;39.604;2022-07-09T08:46:00;100320.16;;;43.28;27.19
52032;BME280;38044;45.148;39.604;2022-07-09T08:48:26;100349.28;;;43.17;27.90
52032;BME280;38044;45.148;39.604;2022-07-09T08:50:52;100341.56;;;43.12;27.69
52032;BME280;38044;45.148;39.604;2022-07-09T08:53:19;100339.06;;;43.03;28.07
52032;BME280;38044;45.148;39.604;2022-07-09T08:55:45;100340.84;;;43.06;29.63
52032;BME280;38044;45.148;39.604;2022-07-09T08:58:12;100317.25;;;42.98;28.25
52032;BME280;38044;45.148;39.604;2022-07-09T09:00:41;100269.75;;;42.38;27.81
52032;BME280;38044;45.148;39.604;2022-07-09T09:03:07;100298.28;;;42.35;28.66
52032;BME280;38044;45.148;39.604;2022-07-09T09:05:33;100334.81;;;42.85;27.58
52032;BME280;38044;45.148;39.604;2022-07-09T09:07:59;100266.19;;;42.32;28.99
52032;BME280;38044;45.148;39.604;2022-07-09T09:10:28;100276.56;;;42.65;28.91
52032;BME280;38044;45.148;39.604;2022-07-09T09:13:01;100254.97;;;42.73;28.33
52032;BME280;38044;45.148;39.604;2022-07-09T09:15:28;100320.91;;;42.93;29.45
52032;BME280;38044;45.148;39.604;2022-07-09T09:17:54;100322.06;;;43.14;30.85
52032;BME280;38044;45.148;39.604;2022-07-09T09:20:20;100313.56;;;43.50;28.67
52032;BME280;38044;45.148;39.604;2022-07-09T09:22:52;100312.38;;;43.70;27.88
52032;BME280;38044;45.148;39.604;2022-07-09T09:25:30;100307.72;;;43.42;27.22
52032;BME280;38044;45.148;39.604;2022-07-09T09:27:59;100311.22;;;43.24;29.00
52032;BME280;38044;45.148;39.604;2022-07-09T09:30:30;100308.66;;;43.21;28.41
52032;BME280;38044;45.148;39.604;2022-07-09T09:33:01;100300.59;;;42.89;29.09
52032;BME280;38044;45.148;39.604;2022-07-09T09:35:34;100305.19;;;42.39;29.25
52032;BME280;38044;45.148;39.604;2022-07-09T09:38:00;100300.25;;;42.57;28.58
52032;BME280;38044;45.148;39.604;2022-07-09T09:40:29;100295.00;;;42.78;28.21
52032;BME280;38044;45.148;39.604;2022-07-09T09:43:05;100289.06;;;42.81;29.16
52032;BME280;38044;45.148;39.604;2022-07-09T09:45:46;100303.47;;;42.83;30.28
52032;BME280;38044;45.148;39.604;2022-07-09T09:48:21;100292.88;;;42.37;29.52
52032;BME280;38044;45.148;39.604;2022-07-09T09:50:52;100287.31;;;42.08;29.05
52032;BME280;38044;45.148;39.604;2022-07-09T09:53:21;100249.66;;;41.38;31.17
52032;BME280;38044;45.148;39.604;2022-07-09T09:55:49;100274.97;;;40.99;30.94
52032;BME280;38044;45.148;39.604;2022-07-09T09:58:15;100279.16;;;40.44;32.68
52032;BME280;38044;45.148;39.604;2022-07-09T10:00:42;100264.06;;;39.61;32.25
52032;BME280;38044;45.148;39.604;2022-07-09T10:03:10;100274.56;;;39.08;32.69
52032;BME280;38044;45.148;39.604;2022-07-09T10:05:37;100282.13;;;38.76;36.26
52032;BME280;38044;45.148;39.604;2022-07-09T10:08:03;100223.66;;;38.34;34.77
52032;BME280;38044;45.148;39.604;2022-07-09T10:10:29;100196.88;;;38.12;35.07
52032;BME280;38044;45.148;39.604;2022-07-09T10:12:54;100265.06;;;38.59;34.54
52032;BME280;38044;45.148;39.604;2022-07-09T10:15:25;100253.16;;;38.44;34.23
52032;BME280;38044;45.148;39.604;2022-07-09T10:17:54;100247.41;;;37.97;34.78
52032;BME280;38044;45.148;39.604;2022-07-09T10:20:33;100261.19;;;37.80;35.13
52032;BME280;38044;45.148;39.604;2022-07-09T10:23:00;100193.84;;;37.30;35.38
52032;BME280;38044;45.148;39.604;2022-07-09T10:25:30;100224.47;;;37.49;36.16
52032;BME280;38044;45.148;39.604;2022-07-09T10:27:56;100188.97;;;37.46;36.03
52032;BME280;38044;45.148;39.604;2022-07-09T10:30:27;100240.16;;;37.91;35.57
52032;BME280;38044;45.148;39.604;2022-07-09T10:33:07;100242.59;;;37.98;35.35
52032;BME280;38044;45.148;39.604;2022-07-09T10:35:44;100225.06;;;37.53;36.41
52032;BME280;38044;45.148;39.604;2022-07-09T10:38:11;100246.69;;;37.23;36.75
52032;BME280;38044;45.148;39.604;2022-07-09T10:40:39;100238.41;;;37.28;36.39
52032;BME280;38044;45.148;39.604;2022-07-09T10:43:05;100219.63;;;37.34;36.93
52032;BME280;38044;45.148;39.604;2022-07-09T10:48:01;100227.88;;;37.38;36.31
52032;BME280;38044;45.148;39.604;2022-07-09T10:50:29;100161.28;;;36.88;35.62
52032;BME280;38044;45.148;39.604;2022-07-09T10:53:01;100237.81;;;37.24;36.67
52032;BME280;38044;45.148;39.604;2022-07-09T10:55:30;100236.97;;;37.18;37.50
52032;BME280;38044;45.148;39.604;2022-07-09T10:57:57;100238.78;;;37.21;36.96
52032;BME280;38044;45.148;39.604;2022-07-09T11:00:27;100225.47;;;37.16;35.99
52032;BME280;38044;45.148;39.604;2022-07-09T11:03:03;100241.59;;;37.06;36.43
52032;BME280;38044;45.148;39.604;2022-07-09T11:05:34;100222.72;;;36.92;37.99
52032;BME280;38044;45.148;39.604;2022-07-09T11:08:07;100223.78;;;36.94;37.61
52032;BME280;38044;45.148;39.604;2022-07-09T11:10:37;100243.03;;;37.02;36.79
52032;BME280;38044;45.148;39.604;2022-07-09T11:13:04;100236.41;;;36.75;37.20
52032;BME280;38044;45.148;39.604;2022-07-09T11:15:32;100209.28;;;36.42;37.29
52032;BME280;38044;45.148;39.604;2022-07-09T11:18:10;100175.09;;;36.23;36.97
52032;BME280;38044;45.148;39.604;2022-07-09T11:20:46;100212.56;;;36.41;37.33
52032;BME280;38044;45.148;39.604;2022-07-09T11:23:16;100219.78;;;35.99;37.71
52032;BME280;38044;45.148;39.604;2022-07-09T11:25:43;100174.41;;;35.38;37.48
52032;BME280;38044;45.148;39.604;2022-07-09T11:28:19;100222.50;;;35.60;36.56
52032;BME280;38044;45.148;39.604;2022-07-09T11:30:46;100222.56;;;35.33;35.96
52032;BME280;38044;45.148;39.604;2022-07-09T11:33:22;100216.22;;;35.14;36.98
52032;BME280;38044;45.148;39.604;2022-07-09T11:35:49;100198.25;;;35.15;36.54
52032;BME280;38044;45.148;39.604;2022-07-09T11:38:15;100147.53;;;34.80;35.54
52032;BME280;38044;45.148;39.604;2022-07-09T11:40:41;100134.53;;;34.67;35.21
52032;BME280;38044;45.148;39.604;2022-07-09T11:43:16;100184.28;;;35.15;35.85
52032;BME280;38044;45.148;39.604;2022-07-09T11:45:52;100192.41;;;35.37;37.03
52032;BME280;38044;45.148;39.604;2022-07-09T11:48:18;100204.34;;;35.47;36.41
52032;BME280;38044;45.148;39.604;2022-07-09T11:50:45;100181.28;;;35.28;35.97
52032;BME280;38044;45.148;39.604;2022-07-09T11:53:22;100136.66;;;34.91;36.02
52032;BME280;38044;45.148;39.604;2022-07-09T11:58:24;100117.50;;;34.74;36.06
52032;BME280;38044;45.148;39.604;2022-07-09T12:00:50;100192.72;;;35.39;36.34
52032;BME280;38044;45.148;39.604;2022-07-09T12:03:26;100177.53;;;35.40;35.98
52032;BME280;38044;45.148;39.604;2022-07-09T12:05:53;100191.13;;;35.56;36.41
52032;BME280;38044;45.148;39.604;2022-07-09T12:08:30;100191.19;;;35.71;35.71
52032;BME280;38044;45.148;39.604;2022-07-09T12:10:57;100174.19;;;35.51;36.18
52032;BME280;38044;45.148;39.604;2022-07-09T12:13:23;100148.66;;;35.34;35.37
52032;BME280;38044;45.148;39.604;2022-07-09T12:15:49;100122.06;;;35.14;36.53
52032;BME280;38044;45.148;39.604;2022-07-09T12:18:15;100176.19;;;35.59;35.83
52032;BME280;38044;45.148;39.604;2022-07-09T12:20:41;100176.69;;;35.58;36.04
52032;BME280;38044;45.148;39.604;2022-07-09T12:23:06;100165.91;;;35.32;35.55
52032;BME280;38044;45.148;39.604;2022-07-09T12:25:32;100145.78;;;35.19;36.42
52032;BME280;38044;45.148;39.604;2022-07-09T12:27:58;100146.25;;;35.08;36.65
52032;BME280;38044;45.148;39.604;2022-07-09T12:30:24;100125.47;;;35.09;36.67
52032;BME280;38044;45.148;39.604;2022-07-09T12:32:51;100149.69;;;35.03;37.32
52032;BME280;38044;45.148;39.604;2022-07-09T12:35:17;100152.47;;;34.94;36.80
52032;BME280;38044;45.148;39.604;2022-07-09T12:37:43;100155.28;;;34.94;36.59
52032;BME280;38044;45.148;39.604;2022-07-09T12:40:10;100154.22;;;34.91;37.32
52032;BME280;38044;45.148;39.604;2022-07-09T12:42:38;100091.13;;;34.48;37.34
52032;BME280;38044;45.148;39.604;2022-07-09T12:45:05;100070.38;;;34.30;38.05
52032;BME280;38044;45.148;39.604;2022-07-09T12:47:31;100137.94;;;34.81;37.98